Time;durP1;ratioP1;P1;durP2;ratioP2;P2;SDS_P1;SDS_P2;PMS_P1;PMS_P2;Temp;Humidity;BMP_temperature;BMP_pressure;BME280_temperature;BME280_humidity;BME280_pressure;Samples;Min_cycle;Max_cycle;Signal;HPM_P1;HPM_P2
2022/04/22 00:00:32;;;;;;;9.52;5.93;;;10.60;99.90;;;;;;5128023;27;20048;-69
2022/04/22 00:02:57;;;;;;;10.15;5.50;;;10.60;99.90;;;;;;5132953;27;20031;-69
2022/04/22 00:05:24;;;;;;;10.68;5.60;;;10.50;99.90;;;;;;5126425;27;20078;-69
2022/04/22 00:07:49;;;;;;;9.95;5.68;;;10.50;99.90;;;;;;5124693;27;20062;-68
2022/04/22 00:10:16;;;;;;;11.43;5.93;;;10.40;99.90;;;;;;5126769;27;20030;-69
2022/04/22 00:12:43;;;;;;;10.85;5.72;;;10.40;99.90;;;;;;5131589;27;20038;-69
2022/04/22 00:15:09;;;;;;;9.23;6.05;;;10.30;99.90;;;;;;5129559;27;20070;-69
2022/04/22 00:17:35;;;;;;;10.20;6.55;;;10.30;99.90;;;;;;5130191;27;20037;-69
2022/04/22 00:20:00;;;;;;;10.57;6.28;;;10.30;99.90;;;;;;5147206;27;20332;-70
2022/04/22 00:22:26;;;;;;;8.63;5.85;;;10.30;99.90;;;;;;5108052;27;20313;-69
2022/04/22 00:24:53;;;;;;;10.77;6.25;;;10.30;99.90;;;;;;5093248;27;20091;-69
2022/04/22 00:27:19;;;;;;;11.93;7.07;;;10.30;99.90;;;;;;5125653;27;20035;-70
2022/04/22 00:29:45;;;;;;;12.75;6.57;;;10.30;99.90;;;;;;5130260;27;20344;-70
2022/04/22 00:32:10;;;;;;;11.25;6.15;;;10.30;99.90;;;;;;5110089;27;20095;-70
2022/04/22 00:34:36;;;;;;;11.77;6.20;;;10.30;99.90;;;;;;5129879;27;20030;-69
2022/04/22 00:37:02;;;;;;;10.73;6.75;;;10.30;99.90;;;;;;5132458;27;20027;-70
2022/04/22 00:39:28;;;;;;;8.95;6.15;;;10.20;99.90;;;;;;5121295;27;20071;-70
2022/04/22 00:41:53;;;;;;;11.98;6.50;;;10.20;99.90;;;;;;5109622;27;20031;-69
2022/04/22 00:44:19;;;;;;;10.95;6.60;;;10.10;99.90;;;;;;5114700;27;20034;-70
2022/04/22 00:46:51;;;;;;;11.27;6.60;;;10.00;99.90;;;;;;5143906;27;20066;-70
2022/04/22 00:49:19;;;;;;;10.73;6.40;;;10.00;99.90;;;;;;5108915;27;20107;-70
2022/04/22 00:51:44;;;;;;;10.98;6.30;;;10.00;99.90;;;;;;5126084;27;20062;-70
2022/04/22 00:54:10;;;;;;;13.77;7.03;;;9.90;99.90;;;;;;5135103;27;20040;-71
2022/04/22 00:56:36;;;;;;;12.27;6.13;;;10.00;99.90;;;;;;5120873;27;20038;-71
2022/04/22 00:59:03;;;;;;;11.85;7.07;;;10.00;99.90;;;;;;5122836;27;20015;-71
2022/04/22 01:01:30;;;;;;;12.40;6.10;;;10.00;99.90;;;;;;5126406;27;20046;-70
2022/04/22 01:12:09;;;;;;;7.07;5.80;;;9.90;99.90;;;;;;5137686;27;20050;-70
2022/04/22 01:14:35;;;;;;;8.88;6.20;;;9.80;99.90;;;;;;5143317;27;20043;-70
2022/04/22 01:17:01;;;;;;;13.57;6.72;;;9.80;99.90;;;;;;5146739;27;20062;-70
2022/04/22 01:19:28;;;;;;;9.90;6.43;;;9.70;99.90;;;;;;5129379;27;20058;-71
2022/04/22 01:21:53;;;;;;;11.73;6.00;;;9.80;99.90;;;;;;5143175;27;20231;-70
2022/04/22 01:24:19;;;;;;;9.95;5.85;;;9.70;99.90;;;;;;5138327;27;20038;-70
2022/04/22 01:26:50;;;;;;;9.48;6.18;;;9.70;99.90;;;;;;5126794;27;20075;-70
2022/04/22 01:29:16;;;;;;;9.18;6.25;;;9.70;99.90;;;;;;5130331;27;20039;-71
2022/04/22 01:31:45;;;;;;;8.63;5.82;;;9.60;99.90;;;;;;5133466;27;20033;-70
2022/04/22 01:34:11;;;;;;;9.45;5.70;;;9.70;99.90;;;;;;5111494;27;20339;-70
2022/04/22 01:36:37;;;;;;;9.55;6.07;;;9.60;99.90;;;;;;5142884;27;20035;-71
2022/04/22 01:39:03;;;;;;;10.10;5.47;;;9.50;99.90;;;;;;5145103;27;20019;-70
2022/04/22 01:41:29;;;;;;;8.88;6.22;;;9.40;99.90;;;;;;5145911;27;20325;-70
2022/04/22 01:43:55;;;;;;;10.13;6.35;;;9.40;99.90;;;;;;5129019;27;20046;-70
2022/04/22 01:46:21;;;;;;;7.38;5.82;;;9.30;99.90;;;;;;5123202;27;20528;-71
2022/04/22 01:48:47;;;;;;;10.70;6.10;;;9.30;99.90;;;;;;5141189;27;20037;-70
2022/04/22 01:51:13;;;;;;;7.75;5.88;;;9.10;99.90;;;;;;5119728;27;20210;-70
2022/04/22 01:53:38;;;;;;;8.52;5.82;;;9.10;99.90;;;;;;5117129;27;20083;-70
2022/04/22 01:56:05;;;;;;;10.73;5.95;;;9.10;99.90;;;;;;5115762;27;20023;-70
2022/04/22 01:58:30;;;;;;;7.80;6.00;;;9.00;99.90;;;;;;5128823;27;20023;-70
2022/04/22 02:00:56;;;;;;;12.43;5.90;;;9.00;99.90;;;;;;5125908;27;20057;-70
2022/04/22 02:03:22;;;;;;;8.38;5.55;;;9.00;99.90;;;;;;5124611;27;20061;-70
2022/04/22 02:05:47;;;;;;;9.85;6.32;;;9.10;99.90;;;;;;5133645;27;20158;-70
2022/04/22 02:08:13;;;;;;;8.13;6.40;;;9.10;99.90;;;;;;5122649;27;20031;-70
2022/04/22 02:10:41;;;;;;;8.73;6.07;;;9.00;99.90;;;;;;5127520;27;20385;-71
2022/04/22 02:13:08;;;;;;;9.18;6.38;;;9.10;99.90;;;;;;5123578;27;20222;-71
2022/04/22 02:15:34;;;;;;;11.13;5.68;;;9.00;99.90;;;;;;5094031;27;20368;-70
2022/04/22 02:18:00;;;;;;;9.45;6.70;;;9.10;99.90;;;;;;5123297;27;20023;-71
2022/04/22 02:20:26;;;;;;;8.57;6.00;;;9.10;99.90;;;;;;5126334;27;20027;-71
2022/04/22 02:22:51;;;;;;;10.43;6.90;;;9.00;99.90;;;;;;5124351;27;20072;-70
2022/04/22 02:25:17;;;;;;;9.52;6.45;;;9.10;99.90;;;;;;5123922;27;20035;-69
2022/04/22 02:30:28;;;;;;;14.57;6.78;;;9.00;99.90;;;;;;5128953;27;20035;-70
2022/04/22 02:32:54;;;;;;;10.02;6.43;;;8.90;99.90;;;;;;5107609;27;20237;-70
2022/04/22 02:35:21;;;;;;;10.32;6.10;;;8.90;99.90;;;;;;5124126;27;20091;-69
2022/04/22 02:37:48;;;;;;;9.07;6.28;;;8.90;99.90;;;;;;5123380;27;20218;-70
2022/04/22 02:45:43;;;;;;;9.02;6.38;;;8.90;99.90;;;;;;5136853;27;21129;-70
2022/04/22 02:48:08;;;;;;;9.05;5.90;;;8.80;99.90;;;;;;5124639;27;20251;-70
2022/04/22 02:50:34;;;;;;;15.18;6.82;;;8.90;99.90;;;;;;5126448;27;20042;-70
2022/04/22 02:53:00;;;;;;;9.63;6.60;;;8.90;99.90;;;;;;5107828;27;20308;-70
2022/04/22 02:55:25;;;;;;;13.85;6.78;;;8.90;99.90;;;;;;5090182;27;20039;-69
2022/04/22 02:57:51;;;;;;;10.60;6.10;;;8.90;99.90;;;;;;5130498;27;20026;-69
2022/04/22 03:00:18;;;;;;;10.05;6.28;;;8.90;99.90;;;;;;5129300;27;20092;-69
2022/04/22 03:02:43;;;;;;;14.93;6.40;;;8.90;99.90;;;;;;5122470;27;20071;-69
2022/04/22 03:05:12;;;;;;;9.10;6.72;;;8.90;99.90;;;;;;5123577;28;20054;-69
2022/04/22 03:07:38;;;;;;;12.20;7.35;;;8.80;99.90;;;;;;5089668;27;20118;-69
2022/04/22 03:10:07;;;;;;;8.52;6.10;;;8.70;99.90;;;;;;5137592;27;20031;-69
2022/04/22 03:12:34;;;;;;;8.70;6.15;;;8.70;99.90;;;;;;5123182;27;20046;-69
2022/04/22 03:15:03;;;;;;;10.18;6.00;;;8.60;99.90;;;;;;5114689;27;20209;-69
2022/04/22 03:17:29;;;;;;;8.65;6.30;;;8.70;99.90;;;;;;5117460;27;20278;-70
2022/04/22 03:19:55;;;;;;;11.27;6.03;;;8.60;99.90;;;;;;5126595;27;20098;-69
2022/04/22 03:22:21;;;;;;;8.30;5.82;;;8.70;99.90;;;;;;5126711;27;20042;-69
2022/04/22 03:24:47;;;;;;;9.45;6.13;;;8.70;99.90;;;;;;5125864;27;20472;-70
2022/04/22 03:27:12;;;;;;;8.65;5.93;;;8.70;99.90;;;;;;5144019;27;20224;-70
2022/04/22 03:29:38;;;;;;;15.27;5.72;;;8.70;99.90;;;;;;5126863;27;20035;-69
2022/04/22 03:32:05;;;;;;;8.45;5.43;;;8.70;99.90;;;;;;5126513;28;20031;-71
2022/04/22 03:34:31;;;;;;;8.25;5.45;;;8.70;99.90;;;;;;5106372;28;20321;-70
2022/04/22 03:36:59;;;;;;;8.70;5.50;;;8.60;99.90;;;;;;5125677;27;20035;-69
2022/04/22 03:39:24;;;;;;;9.90;5.63;;;8.60;99.90;;;;;;5126512;27;20063;-69
2022/04/22 03:41:50;;;;;;;8.35;5.05;;;8.60;99.90;;;;;;5127468;27;20046;-69
2022/04/22 03:44:16;;;;;;;6.20;4.50;;;8.60;99.90;;;;;;5119729;28;20316;-69
2022/04/22 03:46:42;;;;;;;8.10;5.07;;;8.60;99.90;;;;;;5123640;28;20062;-70
2022/04/22 03:49:09;;;;;;;8.85;5.05;;;8.50;99.90;;;;;;5110177;28;20179;-69
2022/04/22 03:51:35;;;;;;;7.28;4.93;;;8.40;99.90;;;;;;5123267;28;20031;-69
2022/04/22 03:54:01;;;;;;;8.77;5.53;;;8.50;99.90;;;;;;5123815;28;20163;-69
2022/04/22 03:59:11;;;;;;;9.70;5.13;;;8.40;99.90;;;;;;5128260;27;20262;-69
2022/04/22 04:01:37;;;;;;;8.80;4.93;;;8.30;99.90;;;;;;5129604;28;20043;-69
2022/04/22 04:04:02;;;;;;;8.15;4.78;;;8.30;99.90;;;;;;5107744;28;20066;-69
2022/04/22 04:06:28;;;;;;;7.65;4.72;;;8.20;99.90;;;;;;5123824;27;20364;-69
2022/04/22 04:17:07;;;;;;;6.90;4.13;;;8.10;99.90;;;;;;5143579;27;20084;-70
2022/04/22 04:25:02;;;;;;;6.20;4.63;;;8.10;99.90;;;;;;5140779;27;20340;-69
2022/04/22 04:27:29;;;;;;;4.72;3.97;;;8.10;99.90;;;;;;5125694;27;20027;-69
2022/04/22 04:29:55;;;;;;;7.10;4.70;;;8.00;99.90;;;;;;5092445;27;20336;-69
2022/04/22 04:32:20;;;;;;;7.20;4.68;;;7.80;99.90;;;;;;5146302;27;20031;-69
2022/04/22 04:34:46;;;;;;;8.38;4.53;;;7.60;99.90;;;;;;5125040;27;20209;-69
2022/04/22 04:37:41;;;;;;;8.35;4.88;;;7.70;99.90;;;;;;5092769;27;20027;-70
2022/04/22 04:40:10;;;;;;;6.88;4.28;;;8.00;99.90;;;;;;5107148;27;20046;-70
2022/04/22 04:42:41;;;;;;;6.03;4.55;;;7.50;99.90;;;;;;5107128;27;20058;-69
2022/04/22 04:45:08;;;;;;;6.10;4.88;;;7.50;99.90;;;;;;5125907;27;20159;-70
2022/04/22 04:47:43;;;;;;;6.50;5.28;;;7.50;99.90;;;;;;5109172;27;20222;-70
2022/04/22 04:50:10;;;;;;;7.78;5.05;;;7.50;99.90;;;;;;5108989;27;20068;-69
2022/04/22 04:52:40;;;;;;;7.70;5.07;;;7.50;99.90;;;;;;5145070;27;20075;-70
2022/04/22 04:55:09;;;;;;;8.27;5.38;;;7.50;99.90;;;;;;5128055;27;20055;-70
2022/04/22 04:57:35;;;;;;;5.43;4.50;;;7.50;99.90;;;;;;5129341;27;20322;-70
2022/04/22 05:00:05;;;;;;;7.40;4.97;;;7.50;99.90;;;;;;5129561;27;20027;-70
2022/04/22 05:02:32;;;;;;;7.30;4.95;;;7.70;99.90;;;;;;5131878;27;20094;-69
2022/04/22 05:04:58;;;;;;;8.70;4.97;;;7.80;99.90;;;;;;5125428;27;20352;-69
2022/04/22 05:07:24;;;;;;;8.32;5.07;;;7.90;99.90;;;;;;5121532;27;20039;-70
2022/04/22 05:09:49;;;;;;;8.43;4.47;;;8.00;99.90;;;;;;5107860;27;20041;-70
2022/04/22 05:12:15;;;;;;;6.00;4.25;;;7.90;99.90;;;;;;5123634;27;20309;-69
2022/04/22 05:14:41;;;;;;;9.80;4.75;;;8.00;99.90;;;;;;5124536;27;20199;-69
2022/04/22 05:17:06;;;;;;;6.70;4.50;;;8.10;99.90;;;;;;5125355;27;20030;-69
2022/04/22 05:19:33;;;;;;;6.07;4.80;;;8.10;99.90;;;;;;5108457;27;20031;-70
2022/04/22 05:21:59;;;;;;;8.02;4.55;;;8.20;99.90;;;;;;5130546;27;20034;-69
2022/04/22 05:24:25;;;;;;;7.28;5.18;;;8.30;99.90;;;;;;5128762;27;20106;-70
2022/04/22 05:26:50;;;;;;;5.18;4.47;;;8.30;99.90;;;;;;5118724;27;20039;-70
2022/04/22 05:35:09;;;;;;;6.10;4.35;;;8.50;99.90;;;;;;5096737;27;20038;-69
2022/04/22 05:37:54;;;;;;;6.40;4.57;;;8.40;99.90;;;;;;5144303;27;20048;-69
2022/04/22 05:40:24;;;;;;;6.60;4.40;;;8.50;99.90;;;;;;5145306;27;20331;-69
2022/04/22 05:42:51;;;;;;;6.45;4.22;;;8.60;99.90;;;;;;5128134;27;20246;-69
2022/04/22 05:45:17;;;;;;;7.65;4.53;;;8.60;99.90;;;;;;5128406;27;20033;-69
2022/04/22 05:47:45;;;;;;;6.03;3.78;;;8.60;99.90;;;;;;5123634;27;20035;-69
2022/04/22 05:50:12;;;;;;;5.85;4.05;;;8.70;99.90;;;;;;5125024;27;20031;-69
2022/04/22 05:52:38;;;;;;;7.57;4.40;;;8.70;99.90;;;;;;5125188;27;20050;-70
2022/04/22 05:55:07;;;;;;;5.82;3.72;;;8.70;99.90;;;;;;5114634;27;20036;-69
2022/04/22 05:57:33;;;;;;;7.00;4.20;;;8.70;99.90;;;;;;5126782;27;20019;-68
2022/04/22 06:00:00;;;;;;;6.22;3.90;;;8.90;99.90;;;;;;5128219;27;20034;-69
2022/04/22 06:02:26;;;;;;;7.32;3.80;;;8.90;99.90;;;;;;5127829;27;20027;-69
2022/04/22 06:04:52;;;;;;;5.43;3.47;;;9.00;99.90;;;;;;5139560;27;20119;-69
2022/04/22 06:07:29;;;;;;;5.13;3.17;;;9.00;99.90;;;;;;5139359;27;20031;-69
2022/04/22 06:12:39;;;;;;;5.28;3.30;;;9.00;99.90;;;;;;5120751;28;20074;-69
2022/04/22 06:15:05;;;;;;;5.03;2.78;;;9.10;99.90;;;;;;5115854;28;20318;-69
2022/04/22 06:17:42;;;;;;;4.80;3.30;;;9.20;99.90;;;;;;5119701;28;20024;-69
2022/04/22 06:20:08;;;;;;;5.15;3.22;;;9.20;99.90;;;;;;5104285;28;20028;-69
2022/04/22 06:22:34;;;;;;;4.90;3.25;;;9.20;99.90;;;;;;5120980;28;20318;-69
2022/04/22 06:24:59;;;;;;;6.15;2.80;;;9.30;99.90;;;;;;5112202;28;20113;-70
2022/04/22 06:27:27;;;;;;;6.43;3.30;;;9.30;99.90;;;;;;5121039;28;20188;-70
2022/04/22 06:29:54;;;;;;;4.65;2.92;;;9.40;99.90;;;;;;5116262;28;20027;-70
2022/04/22 06:32:36;;;;;;;4.63;2.80;;;9.40;99.90;;;;;;5103716;28;20165;-69
2022/04/22 06:35:05;;;;;;;4.35;3.17;;;9.40;99.90;;;;;;5107446;27;20307;-70
2022/04/22 06:37:35;;;;;;;5.25;3.35;;;9.60;99.90;;;;;;5107132;28;20089;-69
2022/04/22 06:45:48;;;;;;;3.63;3.17;;;9.80;99.90;;;;;;5122734;27;20047;-69
2022/04/22 06:48:17;;;;;;;3.83;2.55;;;9.90;99.90;;;;;;5104606;28;20032;-70
2022/04/22 06:50:47;;;;;;;5.38;3.20;;;10.00;99.90;;;;;;5116833;27;20344;-70
2022/04/22 06:53:14;;;;;;;4.53;2.70;;;9.90;99.90;;;;;;5101953;28;20043;-69
2022/04/22 06:55:40;;;;;;;6.28;2.78;;;10.10;99.90;;;;;;5113555;27;20247;-69
2022/04/22 06:58:11;;;;;;;3.78;2.75;;;10.20;99.90;;;;;;5121722;27;20067;-70
2022/04/22 07:00:55;;;;;;;3.20;2.58;;;10.20;99.90;;;;;;5102430;28;20047;-68
2022/04/22 07:03:21;;;;;;;3.10;2.80;;;10.40;99.90;;;;;;5119776;27;20227;-68
2022/04/22 07:05:51;;;;;;;4.63;2.83;;;10.70;99.90;;;;;;5124164;27;20288;-69
2022/04/22 07:08:18;;;;;;;5.22;2.88;;;10.40;99.90;;;;;;5140832;27;20039;-70
2022/04/22 07:10:49;;;;;;;5.97;3.22;;;10.60;99.90;;;;;;5112963;28;20107;-69
2022/04/22 07:13:16;;;;;;;4.78;2.92;;;10.60;99.90;;;;;;5110027;28;20035;-70
2022/04/22 07:15:45;;;;;;;4.03;2.80;;;10.60;99.90;;;;;;5138975;27;20213;-70
2022/04/22 07:18:11;;;;;;;4.65;2.83;;;10.80;99.90;;;;;;5140296;27;20031;-70
2022/04/22 07:20:37;;;;;;;3.78;2.70;;;10.70;99.90;;;;;;5106159;28;20106;-70
2022/04/22 07:23:04;;;;;;;2.97;2.63;;;10.60;99.90;;;;;;5139670;28;20034;-71
2022/04/22 07:25:32;;;;;;;3.75;2.50;;;10.80;99.90;;;;;;5106945;28;20038;-70
2022/04/22 07:28:16;;;;;;;3.78;2.50;;;10.90;99.90;;;;;;5084469;28;20388;-70
2022/04/22 07:30:46;;;;;;;4.60;3.15;;;11.20;99.90;;;;;;5098518;28;20187;-70
2022/04/22 07:33:12;;;;;;;5.57;2.53;;;11.40;99.90;;;;;;5093392;28;20028;-70
2022/04/22 07:35:38;;;;;;;4.15;2.25;;;11.30;99.90;;;;;;5105652;28;21764;-70
2022/04/22 07:38:04;;;;;;;4.13;2.30;;;11.30;99.90;;;;;;5114564;28;20051;-70
2022/04/22 07:40:30;;;;;;;6.88;2.90;;;11.30;99.90;;;;;;5096675;28;20209;-70
2022/04/22 07:48:30;;;;;;;4.72;2.30;;;11.80;99.90;;;;;;5120584;28;20125;-70
2022/04/22 07:50:56;;;;;;;4.35;2.50;;;11.70;99.90;;;;;;5099491;28;20032;-70
2022/04/22 07:53:22;;;;;;;4.65;2.47;;;11.90;99.90;;;;;;5098253;28;20226;-70
2022/04/22 07:55:48;;;;;;;3.00;2.47;;;11.80;99.90;;;;;;5116115;28;20047;-71
2022/04/22 07:58:15;;;;;;;5.60;2.47;;;11.60;99.90;;;;;;5123322;28;20148;-70
2022/04/22 08:00:43;;;;;;;5.28;2.70;;;11.70;99.90;;;;;;5096230;28;20041;-70
2022/04/22 08:03:09;;;;;;;3.83;2.83;;;11.70;99.90;;;;;;5122901;27;20053;-69
2022/04/22 08:05:37;;;;;;;6.82;2.83;;;11.60;99.90;;;;;;5138439;27;20078;-69
2022/04/22 08:08:04;;;;;;;3.42;2.65;;;11.70;99.90;;;;;;5126194;27;20039;-70
2022/04/22 08:10:29;;;;;;;4.78;2.78;;;11.80;99.90;;;;;;5126189;27;20035;-69
2022/04/22 08:12:55;;;;;;;3.08;2.60;;;11.80;99.90;;;;;;5117088;27;20078;-69
2022/04/22 08:15:21;;;;;;;5.80;2.70;;;12.00;99.90;;;;;;5126689;27;20039;-69
2022/04/22 08:17:47;;;;;;;5.50;2.88;;;12.00;99.90;;;;;;5132233;27;20039;-69
2022/04/22 08:20:13;;;;;;;5.32;2.60;;;12.00;99.90;;;;;;5126872;27;20031;-70
2022/04/22 08:22:39;;;;;;;3.17;2.60;;;12.00;99.90;;;;;;5098677;27;20031;-68
2022/04/22 08:25:06;;;;;;;3.65;2.50;;;11.90;99.90;;;;;;5109836;27;20090;-69
2022/04/22 08:27:32;;;;;;;4.78;3.00;;;12.30;99.90;;;;;;5127866;27;20377;-70
2022/04/22 08:30:00;;;;;;;4.35;2.50;;;12.30;99.90;;;;;;5132597;27;20106;-70
2022/04/22 08:32:26;;;;;;;5.00;2.63;;;12.40;99.90;;;;;;5123595;27;20027;-70
2022/04/22 08:34:52;;;;;;;4.25;2.70;;;12.30;99.90;;;;;;5124253;27;20376;-70
2022/04/22 08:37:18;;;;;;;3.78;2.42;;;12.20;99.90;;;;;;5119453;27;20286;-69
2022/04/22 08:39:44;;;;;;;7.32;2.92;;;12.60;99.90;;;;;;5123144;27;20234;-69
2022/04/22 08:42:15;;;;;;;5.55;2.22;;;12.80;99.90;;;;;;5122262;27;20318;-69
2022/04/22 08:44:41;;;;;;;5.47;2.70;;;12.90;99.90;;;;;;5128086;27;20041;-70
2022/04/22 08:50:02;;;;;;;5.10;2.90;;;13.00;99.90;;;;;;5117361;27;20061;-70
2022/04/22 08:52:33;;;;;;;4.00;2.20;;;13.10;99.90;;;;;;5097040;27;20035;-70
2022/04/22 08:55:01;;;;;;;5.10;2.67;;;12.80;99.90;;;;;;5123275;27;20066;-69
2022/04/22 08:57:29;;;;;;;4.55;3.00;;;13.00;99.90;;;;;;5135683;27;20027;-70
2022/04/22 09:00:09;;;;;;;5.57;2.92;;;13.10;99.90;;;;;;5125659;27;20027;-69
2022/04/22 09:02:35;;;;;;;6.18;2.95;;;13.30;99.90;;;;;;5122833;27;20217;-69
2022/04/22 09:05:07;;;;;;;3.78;2.90;;;13.20;99.90;;;;;;5106820;27;20110;-69
2022/04/22 09:07:35;;;;;;;5.57;2.70;;;13.20;99.90;;;;;;5092443;27;20062;-68
2022/04/22 09:10:01;;;;;;;5.45;2.83;;;13.20;99.90;;;;;;5111996;27;20033;-69
2022/04/22 09:12:34;;;;;;;3.60;2.20;;;13.00;99.90;;;;;;5106275;27;20308;-69
2022/04/22 09:15:00;;;;;;;3.03;2.15;;;13.60;99.90;;;;;;5103982;27;20031;-68
2022/04/22 09:17:28;;;;;;;6.47;2.80;;;13.60;99.90;;;;;;5133441;27;20246;-69
2022/04/22 09:19:57;;;;;;;4.40;2.60;;;13.70;99.90;;;;;;5108903;27;20401;-68
2022/04/22 09:22:27;;;;;;;5.03;2.85;;;13.70;99.90;;;;;;5127413;27;20079;-68
2022/04/22 09:24:58;;;;;;;3.95;2.80;;;14.00;99.90;;;;;;5120847;27;20038;-68
2022/04/22 09:27:38;;;;;;;4.32;2.70;;;14.00;99.90;;;;;;5121489;27;20031;-68
2022/04/22 09:30:07;;;;;;;3.15;2.50;;;14.00;99.90;;;;;;5111515;27;20023;-67
2022/04/22 09:32:35;;;;;;;5.82;2.80;;;14.20;99.90;;;;;;5122807;27;20259;-69
2022/04/22 09:35:16;;;;;;;4.20;2.67;;;14.50;99.90;;;;;;5110206;27;20035;-68
2022/04/22 09:43:25;;;;;;;3.22;2.33;;;14.80;99.90;;;;;;5124100;27;20105;-69
2022/04/22 09:46:02;;;;;;;2.70;2.20;;;14.80;99.90;;;;;;5133214;27;20200;-69
2022/04/22 09:48:40;;;;;;;3.95;2.72;;;15.30;99.90;;;;;;5126930;27;20033;-69
2022/04/22 09:51:20;;;;;;;3.13;2.38;;;15.40;99.90;;;;;;5122800;27;20035;-69
2022/04/22 09:53:48;;;;;;;3.90;2.63;;;14.90;99.90;;;;;;5110325;27;20031;-69
2022/04/22 09:56:16;;;;;;;6.78;2.78;;;14.90;99.90;;;;;;5124687;27;20166;-69
2022/04/22 09:58:42;;;;;;;3.63;2.33;;;15.20;99.90;;;;;;5121410;27;20037;-70
2022/04/22 10:01:08;;;;;;;3.47;2.72;;;15.40;99.90;;;;;;5131363;27;20109;-69
2022/04/22 10:03:38;;;;;;;3.45;2.45;;;15.50;99.90;;;;;;5116649;27;20062;-70
2022/04/22 10:06:05;;;;;;;3.00;2.28;;;15.40;99.90;;;;;;5116416;27;20069;-70
2022/04/22 10:08:36;;;;;;;4.35;2.80;;;15.60;99.90;;;;;;5104730;27;20367;-70
2022/04/22 10:11:03;;;;;;;3.15;2.70;;;15.80;99.90;;;;;;5126651;27;20043;-71
2022/04/22 10:13:33;;;;;;;4.47;2.53;;;15.30;99.90;;;;;;5133979;27;20035;-70
2022/04/22 10:15:59;;;;;;;5.85;2.83;;;15.60;99.90;;;;;;5113462;27;20039;-70
2022/04/22 10:18:26;;;;;;;4.95;2.78;;;15.40;99.90;;;;;;5126831;27;20213;-70
2022/04/22 10:20:53;;;;;;;5.20;2.80;;;15.70;99.90;;;;;;5126137;27;20303;-71
2022/04/22 10:23:23;;;;;;;6.00;2.60;;;15.70;99.90;;;;;;5108187;27;20035;-70
2022/04/22 10:25:49;;;;;;;3.28;2.75;;;16.40;99.90;;;;;;5104920;27;20106;-70
2022/04/22 10:28:15;;;;;;;3.92;2.45;;;16.40;99.90;;;;;;5120827;27;20042;-70
2022/04/22 10:30:43;;;;;;;3.20;2.63;;;16.60;99.90;;;;;;5088103;27;20054;-71
2022/04/22 10:33:10;;;;;;;3.45;2.70;;;16.60;99.90;;;;;;5105713;27;20031;-70
2022/04/22 10:35:45;;;;;;;5.57;2.90;;;16.60;99.90;;;;;;5121425;27;20054;-71
2022/04/22 10:38:38;;;;;;;4.53;2.85;;;16.70;99.90;;;;;;5130181;27;20037;-71
2022/04/22 10:41:12;;;;;;;4.63;2.70;;;16.20;99.90;;;;;;5120544;27;20050;-71
2022/04/22 10:43:39;;;;;;;5.45;3.13;;;16.40;99.90;;;;;;5092451;27;20249;-70
2022/04/22 10:49:12;;;;;;;3.88;2.40;;;15.90;99.90;;;;;;5127312;27;20051;-70
2022/04/22 10:52:10;;;;;;;4.15;2.75;;;16.30;99.90;;;;;;5139861;27;20041;-69
2022/04/22 10:54:54;;;;;;;2.35;2.10;;;16.40;99.90;;;;;;5131850;27;20046;-71
2022/04/22 10:57:32;;;;;;;5.65;3.03;;;16.10;99.90;;;;;;5121605;27;20043;-71
2022/04/22 11:00:27;;;;;;;3.70;2.38;;;16.40;99.90;;;;;;5106892;27;20107;-71
2022/04/22 11:03:27;;;;;;;4.63;3.17;;;16.40;99.90;;;;;;5121350;27;20115;-70
2022/04/22 11:05:58;;;;;;;4.63;3.10;;;16.90;99.90;;;;;;5140530;27;20401;-71
2022/04/22 11:08:26;;;;;;;4.10;2.65;;;16.80;99.90;;;;;;5141528;27;20126;-71
2022/04/22 11:10:52;;;;;;;3.72;2.40;;;16.80;99.90;;;;;;5105254;27;20066;-71
2022/04/22 11:13:30;;;;;;;3.42;2.90;;;17.30;99.90;;;;;;5121047;27;20046;-71
2022/04/22 11:15:59;;;;;;;5.00;3.15;;;17.10;99.90;;;;;;5141117;27;20039;-71
2022/04/22 11:18:26;;;;;;;4.70;2.88;;;17.40;99.90;;;;;;5135269;27;20055;-70
2022/04/22 11:21:00;;;;;;;3.22;2.80;;;17.30;99.90;;;;;;5132361;27;20206;-71
2022/04/22 11:23:37;;;;;;;3.80;2.83;;;17.00;99.90;;;;;;5111443;28;20410;-70
2022/04/22 11:26:04;;;;;;;3.30;2.75;;;17.20;99.90;;;;;;5125630;28;20109;-70
2022/04/22 11:28:37;;;;;;;6.53;3.00;;;17.60;99.90;;;;;;5103478;28;20042;-70
2022/04/22 11:31:06;;;;;;;6.28;2.97;;;17.60;99.90;;;;;;5086761;28;20043;-70
2022/04/22 11:33:56;;;;;;;8.95;3.53;;;17.60;99.90;;;;;;5124983;28;20037;-70
2022/04/22 11:36:25;;;;;;;3.90;3.35;;;17.00;99.90;;;;;;5134558;27;20054;-71
2022/04/22 11:38:53;;;;;;;3.58;3.10;;;16.80;99.90;;;;;;5141483;27;20046;-70
2022/04/22 11:41:20;;;;;;;4.22;3.58;;;17.30;99.90;;;;;;5122322;27;20038;-70
2022/04/22 11:43:47;;;;;;;3.47;3.17;;;17.00;99.90;;;;;;5116313;27;20053;-71
2022/04/22 11:46:17;;;;;;;5.53;3.30;;;16.50;99.90;;;;;;5130737;27;20059;-70
2022/04/22 11:48:47;;;;;;;6.28;3.42;;;16.80;99.90;;;;;;5112613;27;20043;-70
2022/04/22 11:51:14;;;;;;;4.45;3.33;;;16.80;99.90;;;;;;5125665;27;20039;-70
2022/04/22 11:53:46;;;;;;;3.53;3.20;;;17.30;99.90;;;;;;5134446;27;20039;-70
2022/04/22 11:56:17;;;;;;;3.63;3.20;;;17.50;99.90;;;;;;5127782;27;21395;-70
2022/04/22 11:58:43;;;;;;;3.80;2.60;;;17.70;99.90;;;;;;5116882;27;20039;-71
2022/04/22 12:10:07;;;;;;;4.22;3.03;;;17.80;99.90;;;;;;5149988;27;20275;-70
2022/04/22 12:12:46;;;;;;;4.18;3.40;;;17.70;99.90;;;;;;5115646;27;20039;-70
2022/04/22 12:15:45;;;;;;;5.95;3.55;;;17.70;99.90;;;;;;5112506;27;20043;-70
2022/04/22 12:18:07;;;;;;;4.60;3.42;;;17.50;99.90;;;;;;5111691;27;20039;-71
2022/04/22 12:20:33;;;;;;;5.68;3.30;;;17.20;99.90;;;;;;5119781;27;20134;-71
2022/04/22 12:23:00;;;;;;;6.30;3.67;;;17.20;99.90;;;;;;5110467;27;20026;-71
2022/04/22 12:25:25;;;;;;;4.45;3.25;;;17.30;99.90;;;;;;5127089;27;20364;-71
2022/04/22 12:28:09;;;;;;;4.15;3.13;;;17.50;99.90;;;;;;5117971;27;20050;-70
2022/04/22 12:30:40;;;;;;;4.72;3.47;;;17.80;99.90;;;;;;5107413;27;20049;-71
2022/04/22 12:33:08;;;;;;;4.28;3.75;;;17.50;99.90;;;;;;5124519;27;20030;-71
2022/04/22 12:35:33;;;;;;;8.13;3.92;;;17.60;99.90;;;;;;5106712;27;20052;-70
2022/04/22 12:38:05;;;;;;;8.68;4.05;;;17.70;99.90;;;;;;5103594;27;20268;-70
2022/04/22 12:40:47;;;;;;;3.95;2.97;;;18.10;99.90;;;;;;5126713;27;20109;-71
2022/04/22 12:43:31;;;;;;;6.70;3.70;;;18.40;99.90;;;;;;5124802;27;20039;-71
2022/04/22 12:52:11;;;;;;;5.75;3.22;;;18.30;99.90;;;;;;5122434;27;20405;-71
2022/04/22 12:54:39;;;;;;;4.53;3.50;;;18.90;99.90;;;;;;5126202;27;20057;-71
2022/04/22 12:57:05;;;;;;;6.60;4.03;;;18.50;99.90;;;;;;5106235;27;20079;-69
2022/04/22 12:59:47;;;;;;;4.60;3.83;;;18.70;99.90;;;;;;5136332;27;20079;-70
2022/04/22 13:02:16;;;;;;;7.13;3.60;;;18.70;99.90;;;;;;5136650;27;20087;-70
2022/04/22 13:04:53;;;;;;;5.32;3.75;;;18.60;99.90;;;;;;5123461;27;20384;-70
2022/04/22 13:07:19;;;;;;;5.63;4.15;;;18.90;99.90;;;;;;5129472;27;20055;-70
2022/04/22 13:09:46;;;;;;;4.82;4.03;;;18.60;99.90;;;;;;5121526;27;20069;-70
2022/04/22 13:12:12;;;;;;;6.25;3.78;;;18.40;99.90;;;;;;5122424;27;20043;-70
2022/04/22 13:14:37;;;;;;;6.03;3.58;;;18.90;99.90;;;;;;5123557;27;20104;-70
2022/04/22 13:17:03;;;;;;;6.25;4.10;;;18.70;99.90;;;;;;5122716;27;20039;-70
2022/04/22 13:19:30;;;;;;;5.10;3.75;;;18.80;99.90;;;;;;5138008;27;20034;-69
2022/04/22 13:21:55;;;;;;;4.55;3.70;;;18.60;99.90;;;;;;5106459;27;20046;-71
2022/04/22 13:24:21;;;;;;;5.35;4.50;;;18.20;99.90;;;;;;5136421;27;20245;-71
2022/04/22 13:26:47;;;;;;;4.55;3.58;;;18.40;99.90;;;;;;5126709;27;20034;-69
2022/04/22 13:29:13;;;;;;;5.00;3.95;;;18.20;99.90;;;;;;5143346;27;20038;-69
2022/04/22 13:31:38;;;;;;;5.57;3.53;;;18.30;99.90;;;;;;5141218;27;20049;-70
2022/04/22 13:34:04;;;;;;;6.20;4.15;;;18.80;99.90;;;;;;5123521;27;20031;-70
2022/04/22 13:36:31;;;;;;;4.40;3.83;;;18.70;99.90;;;;;;5125960;27;20042;-70
2022/04/22 13:38:57;;;;;;;5.43;3.88;;;19.10;99.90;;;;;;5109432;27;20091;-70
2022/04/22 13:41:23;;;;;;;4.80;4.15;;;19.10;99.80;;;;;;5126009;27;20325;-70
2022/04/22 13:43:49;;;;;;;6.88;3.75;;;19.50;99.90;;;;;;5141099;27;20038;-70
2022/04/22 13:54:27;;;;;;;4.55;3.53;;;19.40;99.90;;;;;;5112001;27;20153;-69
2022/04/22 13:56:53;;;;;;;5.40;4.22;;;19.70;99.90;;;;;;5105803;27;20039;-69
2022/04/22 13:59:19;;;;;;;6.10;3.95;;;20.00;99.90;;;;;;5101769;27;20430;-71
2022/04/22 14:01:44;;;;;;;6.00;4.25;;;20.20;97.70;;;;;;5096413;27;20031;-69
2022/04/22 14:04:10;;;;;;;5.35;4.13;;;19.60;97.30;;;;;;5130148;27;20054;-70
2022/04/22 14:06:37;;;;;;;6.65;4.43;;;19.50;97.90;;;;;;5111354;27;20118;-69
2022/04/22 14:09:02;;;;;;;6.35;3.92;;;19.60;98.30;;;;;;5116977;27;20031;-70
2022/04/22 14:11:32;;;;;;;6.18;4.38;;;19.80;98.40;;;;;;5117022;27;20042;-70
2022/04/22 14:13:58;;;;;;;5.60;4.13;;;18.80;99.80;;;;;;5117079;27;20384;-70
2022/04/22 14:16:24;;;;;;;7.97;4.25;;;18.30;99.90;;;;;;5100648;27;20103;-69
2022/04/22 14:18:50;;;;;;;4.72;4.13;;;18.20;99.90;;;;;;5107537;27;20276;-70
2022/04/22 14:21:16;;;;;;;7.30;3.75;;;18.50;99.90;;;;;;5115888;27;20023;-70
2022/04/22 14:23:42;;;;;;;6.00;4.43;;;18.80;99.90;;;;;;5126046;27;20373;-69